sensor_id;sensor_type;location;lat;lon;timestamp;pressure;altitude;pressure_sealevel;temperature;humidity
70468;BME280;57934;51.532;7.684;2023-10-19T00:00:42;98308.94;;;9.97;nan
70468;BME280;57934;51.532;7.684;2023-10-19T00:03:12;98303.09;;;10.12;nan
70468;BME280;57934;51.532;7.684;2023-10-19T00:05:38;98302.94;;;10.02;nan
70468;BME280;57934;51.532;7.684;2023-10-19T00:08:06;98302.38;;;10.00;nan
70468;BME280;57934;51.532;7.684;2023-10-19T00:10:51;98305.97;;;10.11;nan
70468;BME280;57934;51.532;7.684;2023-10-19T00:13:37;98295.38;;;10.22;nan
70468;BME280;57934;51.532;7.684;2023-10-19T00:16:07;98290.47;;;10.14;nan
70468;BME280;57934;51.532;7.684;2023-10-19T00:18:43;98289.69;;;10.14;nan
70468;BME280;57934;51.532;7.684;2023-10-19T00:21:10;98292.63;;;10.17;nan
70468;BME280;57934;51.532;7.684;2023-10-19T00:23:51;98286.97;;;10.09;nan
70468;BME280;57934;51.532;7.684;2023-10-19T00:26:21;98281.47;;;10.10;nan
70468;BME280;57934;51.532;7.684;2023-10-19T00:28:55;98277.00;;;10.11;nan
70468;BME280;57934;51.532;7.684;2023-10-19T00:31:23;98283.16;;;10.16;nan
70468;BME280;57934;51.532;7.684;2023-10-19T00:33:50;98270.72;;;10.29;nan
70468;BME280;57934;51.532;7.684;2023-10-19T00:36:21;98262.88;;;10.34;nan
70468;BME280;57934;51.532;7.684;2023-10-19T00:38:48;98271.28;;;10.31;nan
70468;BME280;57934;51.532;7.684;2023-10-19T00:41:17;98264.25;;;10.36;nan
70468;BME280;57934;51.532;7.684;2023-10-19T00:43:48;98265.59;;;10.39;nan
70468;BME280;57934;51.532;7.684;2023-10-19T00:46:17;98261.31;;;10.33;nan
70468;BME280;57934;51.532;7.684;2023-10-19T00:48:55;98256.25;;;10.31;nan
70468;BME280;57934;51.532;7.684;2023-10-19T00:51:29;98251.44;;;10.45;nan
70468;BME280;57934;51.532;7.684;2023-10-19T00:54:02;98245.97;;;10.46;nan
70468;BME280;57934;51.532;7.684;2023-10-19T00:56:46;98246.19;;;10.45;nan
70468;BME280;57934;51.532;7.684;2023-10-19T00:59:18;98246.31;;;10.55;nan
70468;BME280;57934;51.532;7.684;2023-10-19T01:01:53;98240.63;;;10.63;nan
70468;BME280;57934;51.532;7.684;2023-10-19T01:04:22;98240.63;;;10.63;nan
70468;BME280;57934;51.532;7.684;2023-10-19T01:06:57;98234.88;;;10.66;nan
70468;BME280;57934;51.532;7.684;2023-10-19T01:09:30;98236.22;;;10.69;nan
70468;BME280;57934;51.532;7.684;2023-10-19T01:12:04;98242.78;;;10.66;nan
70468;BME280;57934;51.532;7.684;2023-10-19T01:17:34;98238.31;;;10.89;nan
70468;BME280;57934;51.532;7.684;2023-10-19T01:20:11;98223.72;;;11.03;nan
70468;BME280;57934;51.532;7.684;2023-10-19T01:23:04;98230.56;;;11.04;nan
70468;BME280;57934;51.532;7.684;2023-10-19T01:25:48;98225.06;;;11.06;nan
70468;BME280;57934;51.532;7.684;2023-10-19T01:31:14;98214.56;;;11.11;nan
70468;BME280;57934;51.532;7.684;2023-10-19T01:33:54;98215.31;;;11.06;nan
70468;BME280;57934;51.532;7.684;2023-10-19T01:36:24;98209.41;;;11.21;nan
70468;BME280;57934;51.532;7.684;2023-10-19T01:38:52;98200.78;;;11.31;nan
70468;BME280;57934;51.532;7.684;2023-10-19T01:41:23;98202.69;;;11.40;nan
70468;BME280;57934;51.532;7.684;2023-10-19T01:43:51;98202.47;;;11.42;nan
70468;BME280;57934;51.532;7.684;2023-10-19T01:46:22;98208.81;;;11.41;nan
70468;BME280;57934;51.532;7.684;2023-10-19T01:48:53;98197.81;;;11.54;nan
70468;BME280;57934;51.532;7.684;2023-10-19T01:51:23;98204.84;;;11.43;nan
70468;BME280;57934;51.532;7.684;2023-10-19T01:53:51;98202.50;;;11.47;nan
70468;BME280;57934;51.532;7.684;2023-10-19T01:56:18;98188.41;;;11.63;nan
70468;BME280;57934;51.532;7.684;2023-10-19T01:58:46;98194.47;;;11.64;nan
70468;BME280;57934;51.532;7.684;2023-10-19T02:01:14;98200.00;;;11.62;nan
70468;BME280;57934;51.532;7.684;2023-10-19T02:03:43;98200.53;;;11.64;nan
70468;BME280;57934;51.532;7.684;2023-10-19T02:06:10;98192.13;;;11.67;nan
70468;BME280;57934;51.532;7.684;2023-10-19T02:08:50;98189.56;;;11.78;nan
70468;BME280;57934;51.532;7.684;2023-10-19T02:11:21;98187.09;;;11.66;nan
70468;BME280;57934;51.532;7.684;2023-10-19T02:13:57;98191.06;;;11.68;nan
70468;BME280;57934;51.532;7.684;2023-10-19T02:16:30;98182.44;;;11.78;nan
70468;BME280;57934;51.532;7.684;2023-10-19T02:18:58;98184.78;;;11.75;nan
70468;BME280;57934;51.532;7.684;2023-10-19T02:21:24;98191.41;;;11.77;nan
70468;BME280;57934;51.532;7.684;2023-10-19T02:23:57;98181.38;;;11.79;nan
70468;BME280;57934;51.532;7.684;2023-10-19T02:26:23;98180.34;;;11.80;nan
70468;BME280;57934;51.532;7.684;2023-10-19T02:28:53;98175.13;;;11.85;nan
70468;BME280;57934;51.532;7.684;2023-10-19T02:31:22;98186.94;;;11.83;nan
70468;BME280;57934;51.532;7.684;2023-10-19T02:33:49;98183.00;;;11.80;nan
70468;BME280;57934;51.532;7.684;2023-10-19T02:36:35;98186.75;;;11.84;nan
70468;BME280;57934;51.532;7.684;2023-10-19T02:39:08;98190.50;;;11.93;nan
70468;BME280;57934;51.532;7.684;2023-10-19T02:41:36;98185.19;;;11.88;nan
70468;BME280;57934;51.532;7.684;2023-10-19T02:44:07;98185.75;;;11.96;nan
70468;BME280;57934;51.532;7.684;2023-10-19T02:46:36;98176.28;;;12.00;nan
70468;BME280;57934;51.532;7.684;2023-10-19T02:49:06;98176.53;;;11.98;nan
70468;BME280;57934;51.532;7.684;2023-10-19T02:51:43;98181.03;;;11.98;nan
70468;BME280;57934;51.532;7.684;2023-10-19T02:54:13;98187.91;;;12.04;nan
70468;BME280;57934;51.532;7.684;2023-10-19T02:56:54;98187.69;;;12.10;nan
70468;BME280;57934;51.532;7.684;2023-10-19T02:59:23;98185.13;;;12.21;nan
70468;BME280;57934;51.532;7.684;2023-10-19T03:01:58;98180.81;;;12.09;nan
70468;BME280;57934;51.532;7.684;2023-10-19T03:04:33;98184.03;;;12.11;nan
70468;BME280;57934;51.532;7.684;2023-10-19T03:07:05;98180.34;;;12.17;nan
70468;BME280;57934;51.532;7.684;2023-10-19T03:09:31;98171.63;;;12.17;nan
70468;BME280;57934;51.532;7.684;2023-10-19T03:12:02;98166.31;;;12.12;nan
70468;BME280;57934;51.532;7.684;2023-10-19T03:14:31;98177.69;;;12.12;nan
70468;BME280;57934;51.532;7.684;2023-10-19T03:16:58;98178.25;;;12.20;nan
70468;BME280;57934;51.532;7.684;2023-10-19T03:19:25;98178.53;;;12.28;nan
70468;BME280;57934;51.532;7.684;2023-10-19T03:21:52;98170.09;;;12.26;nan
70468;BME280;57934;51.532;7.684;2023-10-19T03:24:19;98167.72;;;12.30;nan
70468;BME280;57934;51.532;7.684;2023-10-19T03:27:06;98169.88;;;12.38;nan
70468;BME280;57934;51.532;7.684;2023-10-19T03:29:45;98169.31;;;12.31;nan
70468;BME280;57934;51.532;7.684;2023-10-19T03:32:13;98160.66;;;12.40;nan
70468;BME280;57934;51.532;7.684;2023-10-19T03:34:40;98166.72;;;12.36;nan
70468;BME280;57934;51.532;7.684;2023-10-19T03:37:09;98166.50;;;12.43;nan
70468;BME280;57934;51.532;7.684;2023-10-19T03:39:38;98167.00;;;12.39;nan
70468;BME280;57934;51.532;7.684;2023-10-19T03:42:05;98167.25;;;12.38;nan
70468;BME280;57934;51.532;7.684;2023-10-19T03:44:34;98162.78;;;12.44;nan
70468;BME280;57934;51.532;7.684;2023-10-19T03:47:09;98157.72;;;12.37;nan
70468;BME280;57934;51.532;7.684;2023-10-19T03:49:40;98152.44;;;12.37;nan
70468;BME280;57934;51.532;7.684;2023-10-19T03:52:07;98152.94;;;12.34;nan
70468;BME280;57934;51.532;7.684;2023-10-19T03:54:34;98149.25;;;12.30;nan
70468;BME280;57934;51.532;7.684;2023-10-19T03:57:16;98152.94;;;12.34;nan
70468;BME280;57934;51.532;7.684;2023-10-19T03:59:46;98156.09;;;12.31;nan
70468;BME280;57934;51.532;7.684;2023-10-19T04:02:16;98151.59;;;12.26;nan
70468;BME280;57934;51.532;7.684;2023-10-19T04:04:43;98152.44;;;12.37;nan
70468;BME280;57934;51.532;7.684;2023-10-19T04:07:10;98143.44;;;12.38;nan
70468;BME280;57934;51.532;7.684;2023-10-19T04:09:53;98157.72;;;12.37;nan
70468;BME280;57934;51.532;7.684;2023-10-19T04:12:36;98147.19;;;12.47;nan
70468;BME280;57934;51.532;7.684;2023-10-19T04:15:06;98150.06;;;12.40;nan
70468;BME280;57934;51.532;7.684;2023-10-19T04:17:38;98140.34;;;12.46;nan
70468;BME280;57934;51.532;7.684;2023-10-19T04:20:06;98142.94;;;12.41;nan
70468;BME280;57934;51.532;7.684;2023-10-19T04:22:45;98131.63;;;12.51;nan
70468;BME280;57934;51.532;7.684;2023-10-19T04:25:12;98132.13;;;12.53;nan
70468;BME280;57934;51.532;7.684;2023-10-19T04:27:39;98132.13;;;12.48;nan
70468;BME280;57934;51.532;7.684;2023-10-19T04:30:14;98130.56;;;12.47;nan
70468;BME280;57934;51.532;7.684;2023-10-19T04:32:49;98135.03;;;12.46;nan
70468;BME280;57934;51.532;7.684;2023-10-19T04:35:17;98135.56;;;12.43;nan
70468;BME280;57934;51.532;7.684;2023-10-19T04:37:50;98128.44;;;12.49;nan
70468;BME280;57934;51.532;7.684;2023-10-19T04:40:19;98135.56;;;12.43;nan
70468;BME280;57934;51.532;7.684;2023-10-19T04:42:46;98128.16;;;12.45;nan
70468;BME280;57934;51.532;7.684;2023-10-19T04:45:13;98138.16;;;12.38;nan
70468;BME280;57934;51.532;7.684;2023-10-19T04:47:39;98126.56;;;12.44;nan
70468;BME280;57934;51.532;7.684;2023-10-19T04:50:06;98127.63;;;12.48;nan
70468;BME280;57934;51.532;7.684;2023-10-19T04:52:33;98117.06;;;12.43;nan
70468;BME280;57934;51.532;7.684;2023-10-19T04:54:59;98122.34;;;12.48;nan
70468;BME280;57934;51.532;7.684;2023-10-19T04:57:27;98124.19;;;12.48;nan
70468;BME280;57934;51.532;7.684;2023-10-19T04:59:53;98119.69;;;12.43;nan
70468;BME280;57934;51.532;7.684;2023-10-19T05:02:19;98118.63;;;12.49;nan
70468;BME280;57934;51.532;7.684;2023-10-19T05:04:45;98125.78;;;12.49;nan
70468;BME280;57934;51.532;7.684;2023-10-19T05:07:11;98121.00;;;12.46;nan
70468;BME280;57934;51.532;7.684;2023-10-19T05:09:44;98117.84;;;12.44;nan
70468;BME280;57934;51.532;7.684;2023-10-19T05:12:11;98114.97;;;12.50;nan
70468;BME280;57934;51.532;7.684;2023-10-19T05:14:38;98118.16;;;12.62;nan
70468;BME280;57934;51.532;7.684;2023-10-19T05:17:05;98123.97;;;12.59;nan
70468;BME280;57934;51.532;7.684;2023-10-19T05:19:32;98126.09;;;12.57;nan
70468;BME280;57934;51.532;7.684;2023-10-19T05:21:59;98122.38;;;12.63;nan
70468;BME280;57934;51.532;7.684;2023-10-19T05:24:27;98122.13;;;12.60;nan
70468;BME280;57934;51.532;7.684;2023-10-19T05:26:56;98128.22;;;12.65;nan
70468;BME280;57934;51.532;7.684;2023-10-19T05:29:22;98133.22;;;12.57;nan
70468;BME280;57934;51.532;7.684;2023-10-19T05:31:53;98127.44;;;12.65;nan
70468;BME280;57934;51.532;7.684;2023-10-19T05:34:20;98133.53;;;12.71;nan
70468;BME280;57934;51.532;7.684;2023-10-19T05:36:47;98130.88;;;12.65;nan
70468;BME280;57934;51.532;7.684;2023-10-19T05:39:18;98142.75;;;12.63;nan
70468;BME280;57934;51.532;7.684;2023-10-19T05:41:44;98139.03;;;12.59;nan
70468;BME280;57934;51.532;7.684;2023-10-19T05:44:10;98137.19;;;12.54;nan
70468;BME280;57934;51.532;7.684;2023-10-19T05:46:36;98134.28;;;12.56;nan
70468;BME280;57934;51.532;7.684;2023-10-19T05:49:03;98143.78;;;12.52;nan
70468;BME280;57934;51.532;7.684;2023-10-19T05:51:32;98142.97;;;12.51;nan
70468;BME280;57934;51.532;7.684;2023-10-19T05:53:58;98145.63;;;12.51;nan
70468;BME280;57934;51.532;7.684;2023-10-19T05:56:28;98135.59;;;12.53;nan
70468;BME280;57934;51.532;7.684;2023-10-19T05:58:56;98140.63;;;12.55;nan
70468;BME280;57934;51.532;7.684;2023-10-19T06:01:23;98136.91;;;12.51;nan
70468;BME280;57934;51.532;7.684;2023-10-19T06:03:50;98130.81;;;12.50;nan
70468;BME280;57934;51.532;7.684;2023-10-19T06:06:17;98131.66;;;12.61;nan
70468;BME280;57934;51.532;7.684;2023-10-19T06:08:43;98137.97;;;12.50;nan
70468;BME280;57934;51.532;7.684;2023-10-19T06:11:09;98140.84;;;12.48;nan
70468;BME280;57934;51.532;7.684;2023-10-19T06:13:35;98142.44;;;12.49;nan
70468;BME280;57934;51.532;7.684;2023-10-19T06:16:03;98143.53;;;12.53;nan
70468;BME280;57934;51.532;7.684;2023-10-19T06:18:29;98144.09;;;12.65;nan
70468;BME280;57934;51.532;7.684;2023-10-19T06:20:57;98142.50;;;12.64;nan
70468;BME280;57934;51.532;7.684;2023-10-19T06:23:29;98149.94;;;12.73;nan
70468;BME280;57934;51.532;7.684;2023-10-19T06:25:58;98157.59;;;12.69;nan
70468;BME280;57934;51.532;7.684;2023-10-19T06:28:29;98154.97;;;12.79;nan
70468;BME280;57934;51.532;7.684;2023-10-19T06:30:59;98160.53;;;12.78;nan
70468;BME280;57934;51.532;7.684;2023-10-19T06:33:25;98166.91;;;12.87;nan
70468;BME280;57934;51.532;7.684;2023-10-19T06:35:51;98158.16;;;12.86;nan
70468;BME280;57934;51.532;7.684;2023-10-19T06:38:17;98160.53;;;12.88;nan
70468;BME280;57934;51.532;7.684;2023-10-19T06:40:43;98160.81;;;12.92;nan
70468;BME280;57934;51.532;7.684;2023-10-19T06:43:09;98169.28;;;12.94;nan
70468;BME280;57934;51.532;7.684;2023-10-19T06:45:37;98164.00;;;12.94;nan
70468;BME280;57934;51.532;7.684;2023-10-19T06:48:03;98169.56;;;12.97;nan
70468;BME280;57934;51.532;7.684;2023-10-19T06:50:30;98181.47;;;12.89;nan
70468;BME280;57934;51.532;7.684;2023-10-19T06:52:57;98181.97;;;12.92;nan
70468;BME280;57934;51.532;7.684;2023-10-19T06:55:23;98181.19;;;12.91;nan
70468;BME280;57934;51.532;7.684;2023-10-19T06:57:53;98181.19;;;12.86;nan
70468;BME280;57934;51.532;7.684;2023-10-19T07:00:22;98194.66;;;12.84;nan
70468;BME280;57934;51.532;7.684;2023-10-19T07:02:50;98183.28;;;12.84;nan
70468;BME280;57934;51.532;7.684;2023-10-19T07:05:19;98190.97;;;12.85;nan
70468;BME280;57934;51.532;7.684;2023-10-19T07:07:51;98194.69;;;12.89;nan
70468;BME280;57934;51.532;7.684;2023-10-19T07:10:19;98195.75;;;12.88;nan
70468;BME280;57934;51.532;7.684;2023-10-19T07:12:48;98197.56;;;12.88;nan
70468;BME280;57934;51.532;7.684;2023-10-19T07:15:14;98191.25;;;12.94;nan
70468;BME280;57934;51.532;7.684;2023-10-19T07:17:42;98196.03;;;12.92;nan
70468;BME280;57934;51.532;7.684;2023-10-19T07:20:10;98205.03;;;12.96;nan
70468;BME280;57934;51.532;7.684;2023-10-19T07:22:57;98195.00;;;13.03;nan
70468;BME280;57934;51.532;7.684;2023-10-19T07:25:26;98197.66;;;13.19;nan
70468;BME280;57934;51.532;7.684;2023-10-19T07:27:53;98187.63;;;13.21;nan
70468;BME280;57934;51.532;7.684;2023-10-19T07:30:20;98191.63;;;13.33;nan
70468;BME280;57934;51.532;7.684;2023-10-19T07:32:50;98194.81;;;13.30;nan
70468;BME280;57934;51.532;7.684;2023-10-19T07:35:21;98200.66;;;13.38;nan
70468;BME280;57934;51.532;7.684;2023-10-19T07:37:48;98201.19;;;13.45;nan
70468;BME280;57934;51.532;7.684;2023-10-19T07:40:16;98203.31;;;13.53;nan
70468;BME280;57934;51.532;7.684;2023-10-19T07:42:46;98201.72;;;13.62;nan
70468;BME280;57934;51.532;7.684;2023-10-19T07:45:15;98197.47;;;13.71;nan
70468;BME280;57934;51.532;7.684;2023-10-19T07:47:41;98201.97;;;13.60;nan
70468;BME280;57934;51.532;7.684;2023-10-19T07:50:09;98197.75;;;13.59;nan
70468;BME280;57934;51.532;7.684;2023-10-19T07:52:54;98199.63;;;13.69;nan
70468;BME280;57934;51.532;7.684;2023-10-19T07:55:26;98202.78;;;13.71;nan
70468;BME280;57934;51.532;7.684;2023-10-19T07:57:52;98204.91;;;13.69;nan
70468;BME280;57934;51.532;7.684;2023-10-19T08:00:21;98199.88;;;13.78;nan
70468;BME280;57934;51.532;7.684;2023-10-19T08:02:49;98208.88;;;13.77;nan
70468;BME280;57934;51.532;7.684;2023-10-19T08:05:17;98212.03;;;13.69;nan
70468;BME280;57934;51.532;7.684;2023-10-19T08:07:46;98206.75;;;13.74;nan
70468;BME280;57934;51.532;7.684;2023-10-19T08:10:17;98210.47;;;13.73;nan
70468;BME280;57934;51.532;7.684;2023-10-19T08:12:44;98210.47;;;13.78;nan
70468;BME280;57934;51.532;7.684;2023-10-19T08:15:14;98212.06;;;13.74;nan
70468;BME280;57934;51.532;7.684;2023-10-19T08:17:42;98208.59;;;13.78;nan
70468;BME280;57934;51.532;7.684;2023-10-19T08:20:12;98209.38;;;13.69;nan
70468;BME280;57934;51.532;7.684;2023-10-19T08:22:57;98195.63;;;13.61;nan
70468;BME280;57934;51.532;7.684;2023-10-19T08:25:24;98205.16;;;13.63;nan
70468;BME280;57934;51.532;7.684;2023-10-19T08:27:59;98204.13;;;13.58;nan
70468;BME280;57934;51.532;7.684;2023-10-19T08:30:25;98205.16;;;13.52;nan
70468;BME280;57934;51.532;7.684;2023-10-19T08:32:53;98209.41;;;13.53;nan
70468;BME280;57934;51.532;7.684;2023-10-19T08:35:20;98212.31;;;13.62;nan
70468;BME280;57934;51.532;7.684;2023-10-19T08:37:51;98214.16;;;13.72;nan
70468;BME280;57934;51.532;7.684;2023-10-19T08:40:19;98216.28;;;13.70;nan
70468;BME280;57934;51.532;7.684;2023-10-19T08:42:46;98201.19;;;13.75;nan
70468;BME280;57934;51.532;7.684;2023-10-19T08:45:13;98210.75;;;13.87;nan
70468;BME280;57934;51.532;7.684;2023-10-19T08:47:56;98201.72;;;13.88;nan
70468;BME280;57934;51.532;7.684;2023-10-19T08:50:24;98196.66;;;13.86;nan
70468;BME280;57934;51.532;7.684;2023-10-19T08:52:55;98201.69;;;13.93;nan
70468;BME280;57934;51.532;7.684;2023-10-19T08:55:23;98199.06;;;14.08;nan
70468;BME280;57934;51.532;7.684;2023-10-19T08:57:51;98195.88;;;14.11;nan
70468;BME280;57934;51.532;7.684;2023-10-19T09:00:18;98193.72;;;14.23;nan
70468;BME280;57934;51.532;7.684;2023-10-19T09:02:45;98185.44;;;14.45;nan
70468;BME280;57934;51.532;7.684;2023-10-19T09:05:33;98194.97;;;14.62;nan
70468;BME280;57934;51.532;7.684;2023-10-19T09:08:25;98195.44;;;14.74;nan
70468;BME280;57934;51.532;7.684;2023-10-19T09:11:08;98182.34;;;14.93;nan
70468;BME280;57934;51.532;7.684;2023-10-19T09:13:53;98180.94;;;15.06;nan
70468;BME280;57934;51.532;7.684;2023-10-19T09:16:20;98178.41;;;15.30;nan
70468;BME280;57934;51.532;7.684;2023-10-19T09:18:48;98183.56;;;15.50;nan
70468;BME280;57934;51.532;7.684;2023-10-19T09:21:19;98182.19;;;15.58;nan
70468;BME280;57934;51.532;7.684;2023-10-19T09:23:52;98184.91;;;15.47;nan
70468;BME280;57934;51.532;7.684;2023-10-19T09:26:19;98182.50;;;15.51;nan
70468;BME280;57934;51.532;7.684;2023-10-19T09:28:48;98176.72;;;15.44;nan
70468;BME280;57934;51.532;7.684;2023-10-19T09:31:15;98171.13;;;15.45;nan
70468;BME280;57934;51.532;7.684;2023-10-19T09:33:46;98179.38;;;15.44;nan
70468;BME280;57934;51.532;7.684;2023-10-19T09:36:13;98186.66;;;15.67;nan
70468;BME280;57934;51.532;7.684;2023-10-19T09:38:50;98193.69;;;15.87;nan
70468;BME280;57934;51.532;7.684;2023-10-19T09:41:18;98191.50;;;15.94;nan
70468;BME280;57934;51.532;7.684;2023-10-19T09:43:49;98180.00;;;15.99;nan
70468;BME280;57934;51.532;7.684;2023-10-19T09:46:26;98177.75;;;15.82;nan
70468;BME280;57934;51.532;7.684;2023-10-19T09:48:55;98178.00;;;15.86;nan
70468;BME280;57934;51.532;7.684;2023-10-19T09:51:22;98186.91;;;16.00;nan
70468;BME280;57934;51.532;7.684;2023-10-19T09:53:53;98181.81;;;16.04;nan
70468;BME280;57934;51.532;7.684;2023-10-19T09:56:32;98182.19;;;15.92;nan
70468;BME280;57934;51.532;7.684;2023-10-19T09:59:11;98177.44;;;15.89;nan
70468;BME280;57934;51.532;7.684;2023-10-19T10:02:11;98180.41;;;15.82;nan
70468;BME280;57934;51.532;7.684;2023-10-19T10:04:42;98177.81;;;15.77;nan
70468;BME280;57934;51.532;7.684;2023-10-19T10:07:10;98176.72;;;15.83;nan
70468;BME280;57934;51.532;7.684;2023-10-19T10:09:39;98170.47;;;15.98;nan
70468;BME280;57934;51.532;7.684;2023-10-19T10:12:25;98167.59;;;16.18;nan
70468;BME280;57934;51.532;7.684;2023-10-19T10:15:09;98152.03;;;16.31;nan
70468;BME280;57934;51.532;7.684;2023-10-19T10:17:49;98161.34;;;16.52;nan
70468;BME280;57934;51.532;7.684;2023-10-19T10:23:19;98150.22;;;17.12;nan
70468;BME280;57934;51.532;7.684;2023-10-19T10:25:52;98143.09;;;17.59;nan
70468;BME280;57934;51.532;7.684;2023-10-19T10:28:20;98154.66;;;17.35;nan
70468;BME280;57934;51.532;7.684;2023-10-19T10:37:15;98158.91;;;16.56;nan
70468;BME280;57934;51.532;7.684;2023-10-19T10:44:14;98148.91;;;17.28;nan
70468;BME280;57934;51.532;7.684;2023-10-19T10:47:25;98151.41;;;17.38;nan
70468;BME280;57934;51.532;7.684;2023-10-19T10:50:20;98152.88;;;17.63;nan
70468;BME280;57934;51.532;7.684;2023-10-19T10:52:46;98147.19;;;17.70;nan
70468;BME280;57934;51.532;7.684;2023-10-19T10:55:14;98145.44;;;17.79;nan
70468;BME280;57934;51.532;7.684;2023-10-19T10:57:41;98146.47;;;17.83;nan
70468;BME280;57934;51.532;7.684;2023-10-19T11:00:12;98157.34;;;18.01;nan
70468;BME280;57934;51.532;7.684;2023-10-19T11:03:02;98153.84;;;17.86;nan
70468;BME280;57934;51.532;7.684;2023-10-19T11:05:34;98143.16;;;17.86;nan
70468;BME280;57934;51.532;7.684;2023-10-19T11:08:12;98143.59;;;18.21;nan
70468;BME280;57934;51.532;7.684;2023-10-19T11:10:48;98141.56;;;19.32;nan
70468;BME280;57934;51.532;7.684;2023-10-19T11:13:16;98133.75;;;21.12;nan
70468;BME280;57934;51.532;7.684;2023-10-19T11:15:53;98133.88;;;22.53;nan
70468;BME280;57934;51.532;7.684;2023-10-19T11:20:55;98132.19;;;23.66;nan
70468;BME280;57934;51.532;7.684;2023-10-19T11:23:36;98129.84;;;24.71;nan
70468;BME280;57934;51.532;7.684;2023-10-19T11:26:19;98119.41;;;25.66;nan
70468;BME280;57934;51.532;7.684;2023-10-19T11:28:46;98123.44;;;26.04;nan
70468;BME280;57934;51.532;7.684;2023-10-19T11:31:20;98130.44;;;25.05;nan
70468;BME280;57934;51.532;7.684;2023-10-19T11:33:54;98138.47;;;23.24;nan
70468;BME280;57934;51.532;7.684;2023-10-19T11:36:21;98142.72;;;21.68;nan
70468;BME280;57934;51.532;7.684;2023-10-19T11:38:52;98139.09;;;20.69;nan
70468;BME280;57934;51.532;7.684;2023-10-19T11:41:18;98135.28;;;19.82;nan
70468;BME280;57934;51.532;7.684;2023-10-19T11:43:46;98129.66;;;19.38;nan
70468;BME280;57934;51.532;7.684;2023-10-19T11:46:12;98115.63;;;19.33;nan
70468;BME280;57934;51.532;7.684;2023-10-19T11:48:41;98113.44;;;19.12;nan
70468;BME280;57934;51.532;7.684;2023-10-19T11:51:08;98106.50;;;18.89;nan
70468;BME280;57934;51.532;7.684;2023-10-19T11:53:38;98109.59;;;18.68;nan
70468;BME280;57934;51.532;7.684;2023-10-19T11:56:07;98106.03;;;18.73;nan
70468;BME280;57934;51.532;7.684;2023-10-19T11:58:34;98107.78;;;18.64;nan
70468;BME280;57934;51.532;7.684;2023-10-19T12:01:03;98105.13;;;18.77;nan
70468;BME280;57934;51.532;7.684;2023-10-19T12:03:39;98096.06;;;19.01;nan
70468;BME280;57934;51.532;7.684;2023-10-19T12:06:07;98091.94;;;19.40;nan
70468;BME280;57934;51.532;7.684;2023-10-19T12:09:01;98092.72;;;19.40;nan
70468;BME280;57934;51.532;7.684;2023-10-19T12:12:24;98092.97;;;19.30;nan
70468;BME280;57934;51.532;7.684;2023-10-19T12:15:15;98081.31;;;19.03;nan
70468;BME280;57934;51.532;7.684;2023-10-19T12:17:41;98082.09;;;19.04;nan
70468;BME280;57934;51.532;7.684;2023-10-19T12:20:07;98079.56;;;19.21;nan
70468;BME280;57934;51.532;7.684;2023-10-19T12:22:34;98078.31;;;19.50;nan
70468;BME280;57934;51.532;7.684;2023-10-19T12:25:04;98073.75;;;19.50;nan
70468;BME280;57934;51.532;7.684;2023-10-19T12:27:31;98068.91;;;19.30;nan
70468;BME280;57934;51.532;7.684;2023-10-19T12:29:57;98063.97;;;19.46;nan
70468;BME280;57934;51.532;7.684;2023-10-19T12:32:24;98061.22;;;19.28;nan
70468;BME280;57934;51.532;7.684;2023-10-19T12:34:51;98052.75;;;19.35;nan
70468;BME280;57934;51.532;7.684;2023-10-19T12:37:24;98062.06;;;19.15;nan
70468;BME280;57934;51.532;7.684;2023-10-19T12:39:50;98060.25;;;19.24;nan
70468;BME280;57934;51.532;7.684;2023-10-19T12:42:17;98050.88;;;18.91;nan
70468;BME280;57934;51.532;7.684;2023-10-19T12:44:43;98055.38;;;18.81;nan
70468;BME280;57934;51.532;7.684;2023-10-19T12:47:10;98064.00;;;18.78;nan
70468;BME280;57934;51.532;7.684;2023-10-19T12:49:40;98067.91;;;18.81;nan
70468;BME280;57934;51.532;7.684;2023-10-19T12:52:09;98056.28;;;18.77;nan
70468;BME280;57934;51.532;7.684;2023-10-19T12:54:37;98052.44;;;18.55;nan
70468;BME280;57934;51.532;7.684;2023-10-19T12:57:07;98056.69;;;18.56;nan
70468;BME280;57934;51.532;7.684;2023-10-19T12:59:34;98052.03;;;18.62;nan
70468;BME280;57934;51.532;7.684;2023-10-19T13:02:04;98051.66;;;18.55;nan
70468;BME280;57934;51.532;7.684;2023-10-19T13:04:33;98062.16;;;18.51;nan
70468;BME280;57934;51.532;7.684;2023-10-19T13:07:00;98057.81;;;18.42;nan
70468;BME280;57934;51.532;7.684;2023-10-19T13:09:28;98055.09;;;18.19;nan
70468;BME280;57934;51.532;7.684;2023-10-19T13:11:58;98061.69;;;18.35;nan
70468;BME280;57934;51.532;7.684;2023-10-19T13:14:25;98061.97;;;18.48;nan
70468;BME280;57934;51.532;7.684;2023-10-19T13:16:52;98069.38;;;18.51;nan
70468;BME280;57934;51.532;7.684;2023-10-19T13:19:20;98074.03;;;18.45;nan
70468;BME280;57934;51.532;7.684;2023-10-19T13:21:56;98064.06;;;18.37;nan
70468;BME280;57934;51.532;7.684;2023-10-19T13:24:24;98069.59;;;18.27;nan
70468;BME280;57934;51.532;7.684;2023-10-19T13:26:52;98068.03;;;18.12;nan
70468;BME280;57934;51.532;7.684;2023-10-19T13:29:18;98056.28;;;17.99;nan
70468;BME280;57934;51.532;7.684;2023-10-19T13:35:09;98045.13;;;17.97;nan
70468;BME280;57934;51.532;7.684;2023-10-19T13:37:35;98038.50;;;17.81;nan
70468;BME280;57934;51.532;7.684;2023-10-19T13:40:08;98039.97;;;17.73;nan
70468;BME280;57934;51.532;7.684;2023-10-19T13:42:58;98038.56;;;17.62;nan
70468;BME280;57934;51.532;7.684;2023-10-19T13:45:25;98046.66;;;17.57;nan
70468;BME280;57934;51.532;7.684;2023-10-19T13:47:51;98039.34;;;17.49;nan
70468;BME280;57934;51.532;7.684;2023-10-19T13:50:22;98041.31;;;17.57;nan
70468;BME280;57934;51.532;7.684;2023-10-19T13:52:53;98038.44;;;17.53;nan
70468;BME280;57934;51.532;7.684;2023-10-19T13:55:21;98040.22;;;17.58;nan
70468;BME280;57934;51.532;7.684;2023-10-19T13:57:48;98045.47;;;17.63;nan
70468;BME280;57934;51.532;7.684;2023-10-19T14:00:16;98050.81;;;17.63;nan
70468;BME280;57934;51.532;7.684;2023-10-19T14:02:51;98051.97;;;17.57;nan
70468;BME280;57934;51.532;7.684;2023-10-19T14:05:18;98057.41;;;17.52;nan
70468;BME280;57934;51.532;7.684;2023-10-19T14:07:46;98051.66;;;17.31;nan